Latest Weather Observations for Cape Nelson

IDV60801

Issued at 5:05 pm EDT Saturday 1 November 2014 (issued every 30 minutes, with the page automatically refreshed every 10 minutes)

About weather observations | Map of weather stations | Latest weather observations for VIC | Other Formats
Station Details ID: 090184 Name: CAPE NELSON LIGHTHOUSE Lat: -38.43 Lon: 141.54 Height: 45.4 m
Data from the previous 72 hours. | See also: Recent months at Cape Nelson
Date/Time
EDT
Temp
°C
App
Temp
°C
Dew
Point
Rel
Hum
%
Delta-T
°C
Wind Press
QNH
hPa
Press
MSL
hPa
Rain
since 9 am
mm
Dir
 
Spd
km/h
Gust
km/h
Spd
kts
Gust
kts
01/05:00pm 11.8 2.8 4.8 62 3.2 W 41 59 22 32 1012.6 1012.5 0.6
01/04:56pm 11.8 3.8 5.7 66 2.8 W 37 57 20 31 1012.5 1012.4 0.6
01/04:43pm 12.9 7.6 6.7 66 3.0 NNW 24 43 13 23 1012.1 1012.0 0.6
01/04:36pm 12.0 3.7 4.2 59 3.5 WNW 37 61 20 33 1012.1 1012.0 0.6
01/04:30pm 12.7 5.3 4.2 56 3.9 NW 32 52 17 28 1011.8 1011.7 0.6
01/04:01pm 11.7 3.8 4.2 60 3.4 WNW 35 61 19 33 1012.0 1011.9 0.6
01/04:00pm 12.0 4.6 5.0 62 3.2 WNW 33 50 18 27 1011.9 1011.8 0.6
01/03:44pm 11.8 4.6 5.0 63 3.1 WNW 32 59 17 32 1011.9 1011.8 0.6
01/03:30pm 11.0 5.3 6.7 75 2.0 NNE 26 48 14 26 1011.7 1011.6 0.6
01/03:22pm 10.7 4.0 5.5 70 2.4 NNE 30 48 16 26 1011.3 1011.2 0.6
01/03:21pm 11.1 4.0 5.6 69 2.5 NE 32 48 17 26 1011.1 1011.0 0.6
01/03:00pm 11.8 0.9 3.8 58 3.6 W 50 69 27 37 1011.5 1011.4 0.6
01/02:31pm 12.6 5.5 5.5 62 3.3 WNW 32 52 17 28 1011.1 1011.0 0.6
01/02:30pm 12.6 5.6 5.8 63 3.2 WNW 32 48 17 26 1011.1 1011.0 0.6
01/02:06pm 11.2 4.2 5.9 70 2.5 WNW 32 50 17 27 1010.7 1010.6 0.6
01/02:00pm 10.4 4.5 6.0 74 2.0 N 26 39 14 21 1010.5 1010.4 0.6
01/01:40pm 12.4 4.5 4.6 59 3.6 WNW 35 61 19 33 1010.2 1010.1 0.4
01/01:30pm 12.4 3.8 4.9 60 3.5 W 39 52 21 28 1010.2 1010.1 0.4
01/01:23pm 12.6 5.9 5.5 62 3.3 NW 30 48 16 26 1009.8 1009.7 0.4
01/01:21pm 12.3 4.1 4.8 60 3.4 W 37 56 20 30 1009.8 1009.7 0.4
01/01:15pm 11.8 5.3 4.5 61 3.3 NNW 28 46 15 25 1009.7 1009.6 0.4
01/01:09pm 12.1 5.0 5.5 64 3.1 NNW 32 44 17 24 1009.4 1009.3 0.4
01/01:04pm 12.6 1.9 4.8 59 3.6 W 50 69 27 37 1009.7 1009.6 0.4
01/01:02pm 12.1 0.0 3.1 54 4.0 W 56 69 30 37 1009.8 1009.7 0.4
01/01:00pm 12.6 4.8 5.1 60 3.5 WNW 35 67 19 36 1009.5 1009.4 0.4
01/12:30pm 11.0 3.7 5.5 69 2.5 WNW 33 54 18 29 1009.1 1009.0 0.4
01/12:18pm 12.4 6.1 5.6 63 3.2 NW 28 48 15 26 1009.0 1008.9 0.2
01/12:00pm 11.3 3.8 4.3 62 3.2 N 33 50 18 27 1008.3 1008.2 0.2
01/11:30am 11.9 2.7 5.3 64 3.1 W 43 63 23 34 1008.7 1008.6 0.2
01/11:22am 11.5 3.2 4.3 61 3.2 WNW 37 63 20 34 1008.7 1008.6 0.2
01/11:00am 11.0 4.4 6.0 71 2.3 N 30 57 16 31 1007.9 1007.8 0.2
01/10:30am 12.4 6.2 6.2 66 2.9 NNW 28 46 15 25 1007.3 1007.2 0.2
01/10:16am 12.0 4.8 6.1 67 2.8 WNW 33 57 18 31 1007.3 1007.2 0.2
01/10:00am 11.7 5.6 6.8 72 2.3 NW 28 43 15 23 1006.9 1006.8 0.2
01/09:44am 11.3 4.5 7.0 75 2.1 NW 32 50 17 27 1006.4 1006.3 0.2
01/09:30am 10.1 1.5 6.6 79 1.6 WNW 41 74 22 40 1006.5 1006.4 0.2
01/09:26am 10.7 3.2 6.5 75 2.0 WNW 35 74 19 40 1006.2 1006.1 0.0
01/09:15am 11.7 5.2 6.4 70 2.5 N 30 52 16 28 1005.5 1005.4 0.0
01/09:00am 12.2 4.1 7.1 71 2.5 WNW 39 61 21 33 1005.9 1005.8 3.8
01/08:30am 11.7 4.1 5.8 67 2.8 WNW 35 63 19 34 1005.2 1005.1 3.8
01/08:17am 11.9 5.9 7.0 72 2.4 N 28 48 15 26 1004.6 1004.5 3.8
01/08:16am 11.9 5.9 7.0 72 2.4 NNW 28 39 15 21 1004.6 1004.5 3.8
01/08:00am 10.9 0.6 6.6 75 2.0 W 50 78 27 42 1004.9 1004.8 3.6
01/07:55am 11.8 2.4 7.1 73 2.3 W 46 65 25 35 1004.6 1004.5 3.6
01/07:53am 12.0 6.0 7.1 72 2.4 NNW 28 46 15 25 1004.3 1004.2 3.6
01/07:48am 12.1 6.2 7.4 73 2.3 NNW 28 39 15 21 1004.0 1004.0 3.6
01/07:30am 11.7 3.8 8.0 78 1.8 W 39 59 21 32 1004.3 1004.2 3.6
01/07:00am 12.3 3.0 7.4 72 2.4 W 46 65 25 35 1003.5 1003.5 3.4
01/06:50am 11.9 5.1 7.6 75 2.1 WNW 33 54 18 29 1003.4 1003.4 3.4
01/06:36am 11.9 5.6 7.4 74 2.2 NNW 30 46 16 25 1002.6 1002.6 3.4
01/06:34am 12.6 3.8 7.9 73 2.3 W 44 63 24 34 1002.9 1002.9 3.4
01/06:30am 12.7 3.5 6.3 65 3.0 W 44 59 24 32 1003.0 1003.0 3.4
01/06:04am 12.6 3.6 6.2 65 3.0 W 43 61 23 33 1002.7 1002.7 3.4
01/06:00am 12.6 3.9 7.7 72 2.4 W 43 59 23 32 1002.6 1002.6 3.4
01/05:30am 12.7 4.3 7.4 70 2.6 W 41 59 22 32 1002.2 1002.2 3.4
01/05:13am 12.7 4.1 6.7 67 2.9 W 41 61 22 33 1001.7 1001.7 3.4
01/05:10am 12.5 4.3 6.5 67 2.9 W 39 56 21 30 1001.7 1001.7 3.4
01/05:00am 12.5 6.0 8.0 74 2.2 NW 32 54 17 29 1001.2 1001.2 3.4
01/04:56am 12.4 5.9 8.1 75 2.1 NW 32 52 17 28 1001.0 1001.0 3.4
01/04:47am 12.6 7.4 8.9 78 1.9 NE 26 43 14 23 1000.8 1000.8 3.4
01/04:32am 12.6 5.4 9.1 79 1.8 WNW 37 56 20 30 1000.7 1000.7 3.4
01/04:30am 12.6 5.5 9.4 81 1.6 W 37 54 20 29 1000.9 1000.9 3.4
01/04:04am 12.0 6.4 10.2 89 0.9 WNW 30 48 16 26 1000.4 1000.4 3.4
01/04:00am 12.0 6.0 10.2 89 0.9 WNW 32 48 17 26 1000.4 1000.4 3.4
01/03:31am 13.2 8.1 10.7 85 1.3 NW 28 46 15 25 999.8 999.8 3.4
01/03:30am 13.4 5.5 10.8 84 1.4 W 43 59 23 32 999.8 999.8 3.4
01/03:12am 13.4 6.4 11.3 87 1.1 W 39 57 21 31 999.8 999.8 3.2
01/03:00am 12.9 5.5 11.3 90 0.9 W 41 57 22 31 999.8 999.8 3.2
01/02:33am 13.0 7.4 12.2 95 0.4 WNW 33 52 18 28 1000.0 1000.0 3.0
01/02:30am 13.1 7.2 12.3 95 0.4 WNW 35 46 19 25 1000.0 1000.0 2.6
01/02:00am 13.1 7.0 11.8 92 0.7 WNW 35 44 19 24 1000.0 1000.0 2.2
01/01:30am 13.0 6.9 11.9 93 0.6 WNW 35 46 19 25 1000.6 1000.6 2.2
01/01:01am 13.0 8.3 11.9 93 0.6 WNW 28 46 15 25 1000.4 1000.4 2.2
01/01:00am 13.1 8.4 12.0 93 0.6 WNW 28 41 15 22 1000.4 1000.4 2.2
01/12:30am 13.2 9.2 11.9 92 0.7 WNW 24 33 13 18 1000.0 1000.0 1.8
01/12:00am 13.5 9.5 11.9 90 0.9 WNW 24 32 13 17 1000.6 1000.6 0.6
 
Date/Time
EDT
Temp
°C
App
Temp
°C
Dew
Point
Rel
Hum
%
Delta-T
°C
Wind Press
QNH
hPa
Press
MSL
hPa
Rain
since 9 am
mm
Dir
 
Spd
km/h
Gust
km/h
Spd
kts
Gust
kts
31/11:30pm 13.9 9.2 11.9 88 1.1 WNW 28 37 15 20 1001.3 1001.3 0.0
31/11:00pm 14.6 9.8 11.6 82 1.6 WNW 28 39 15 21 1001.8 1001.8 0.0
31/10:30pm 14.4 8.9 11.7 84 1.5 W 32 44 17 24 1000.5 1000.5 0.0
31/10:00pm 14.4 7.6 11.9 85 1.4 W 39 48 21 26 999.8 999.8 0.0
31/09:33pm 15.1 9.5 13.3 89 1.0 W 35 54 19 29 1000.9 1000.9 0.0
31/09:30pm 14.9 8.0 12.9 88 1.1 W 41 54 22 29 1000.9 1000.9 0.0
31/09:10pm 15.1 10.8 13.1 88 1.1 W 28 46 15 25 1000.3 1000.3 0.0
31/09:00pm 15.2 11.3 13.2 88 1.1 W 26 43 14 23 1000.1 1000.1 0.0
31/08:30pm 15.4 11.3 13.8 90 0.9 W 28 43 15 23 999.9 999.9 0.0
31/08:04pm 15.6 10.7 13.6 88 1.1 W 32 50 17 27 999.4 999.4 0.0
31/08:00pm 15.9 11.8 13.7 87 1.2 W 28 43 15 23 999.6 999.6 0.0
31/07:30pm 16.4 11.4 13.5 83 1.6 W 32 41 17 22 998.5 998.5 0.0
31/07:00pm 17.6 13.9 12.7 73 2.8 WNW 24 35 13 19 998.2 998.2 0.0
31/06:30pm 18.6 13.5 11.9 65 3.7 WNW 30 41 16 22 997.8 997.8 0.0
31/06:00pm 19.8 14.9 11.3 58 4.7 WNW 28 39 15 21 997.7 997.7 0.0
31/05:30pm 21.5 16.6 11.2 52 5.7 WNW 28 37 15 20 997.7 997.7 0.0
31/05:00pm 23.6 18.6 11.0 45 7.1 NW 28 41 15 22 997.7 997.7 0.0
31/04:31pm 25.2 19.6 8.7 35 8.9 WNW 28 50 15 27 997.5 997.5 0.0
31/04:30pm 25.7 20.3 9.5 36 8.9 WNW 28 43 15 23 997.6 997.6 0.0
31/04:24pm 27.1 21.3 9.5 33 9.7 NW 30 43 16 23 997.7 997.7 0.0
31/04:00pm 32.2 24.8 4.9 18 14.5 NNW 33 46 18 25 997.6 997.6 0.0
31/03:30pm 32.0 24.9 5.5 19 14.1 NNW 32 50 17 27 998.0 998.0 0.0
31/03:00pm 32.1 23.5 4.8 18 14.4 NNW 39 57 21 31 998.4 998.4 0.0
31/02:30pm 31.3 22.5 3.4 17 14.3 NNW 39 61 21 33 999.1 999.1 0.0
31/02:18pm 31.9 25.5 6.9 21 13.6 N 30 50 16 27 999.3 999.3 0.0
31/02:00pm 30.6 23.8 7.1 23 12.8 NNW 32 44 17 24 999.8 999.8 0.0
31/01:30pm 28.6 21.6 6.1 24 11.8 NNW 32 52 17 28 1000.3 1000.3 0.0
31/01:00pm 29.2 21.8 6.6 24 12.1 NNW 35 65 19 35 1000.7 1000.7 0.0
31/12:36pm 29.8 23.6 9.3 28 11.5 NNW 32 50 17 27 1001.1 1001.1 0.0
31/12:30pm 29.4 23.6 9.5 29 11.1 NNW 30 44 16 24 1001.3 1001.3 0.0
31/12:00pm 27.6 20.7 9.0 31 10.3 N 35 56 19 30 1001.8 1001.8 0.0
31/11:30am 26.6 20.4 9.5 34 9.4 N 32 50 17 27 1002.2 1002.2 0.0
31/11:00am 24.4 17.2 7.5 34 8.9 N 35 56 19 30 1002.5 1002.5 0.0
31/10:44am 24.4 17.7 8.0 35 8.7 N 33 54 18 29 1002.8 1002.8 0.0
31/10:30am 23.2 16.5 8.1 38 8.0 N 33 46 18 25 1003.0 1003.0 0.0
31/10:14am 22.5 15.9 7.9 39 7.7 N 32 50 17 27 1003.3 1003.3 0.0
31/10:00am 22.0 15.1 7.4 39 7.6 N 33 50 18 27 1003.6 1003.6 0.0
31/09:59am 22.0 15.4 7.8 40 7.4 N 32 50 17 27 1003.6 1003.6 0.0
31/09:30am 19.2 12.9 7.3 46 6.0 N 30 43 16 23 1004.2 1004.1 0.0
31/09:00am 16.1 10.7 7.8 58 4.2 N 26 35 14 19 1004.6 1004.5 0.0
31/08:30am 14.3 9.2 7.8 65 3.2 N 24 37 13 20 1005.1 1005.0 0.0
31/08:00am 13.4 8.7 7.8 69 2.8 N 22 35 12 19 1005.5 1005.4 0.0
31/07:30am 12.8 10.1 8.9 77 2.0 N 13 17 7 9 1006.5 1006.4 0.0
31/07:00am 11.9 7.6 9.3 84 1.3 N 22 32 12 17 1006.6 1006.5 0.0
31/06:30am 11.7 7.7 9.1 84 1.3 NNE 20 32 11 17 1006.9 1006.8 0.0
31/06:00am 11.6 7.3 9.2 85 1.2 NNE 22 33 12 18 1007.1 1007.0 0.0
31/05:30am 11.6 7.2 9.0 84 1.3 NNE 22 33 12 18 1007.7 1007.6 0.0
31/05:00am 11.4 7.0 9.0 85 1.2 NNE 22 32 12 17 1008.1 1008.0 0.0
31/04:30am 11.2 7.3 8.6 84 1.3 NNE 19 28 10 15 1008.5 1008.5 0.0
31/04:00am 10.9 8.1 8.5 85 1.2 NNE 13 22 7 12 1009.1 1009.1 0.0
31/03:30am 10.0 7.1 8.3 89 0.8 NNE 13 20 7 11 1009.7 1009.7 0.0
31/03:00am 9.5 6.5 7.6 88 0.9 N 13 19 7 10 1010.2 1010.2 0.0
31/02:30am 9.1 6.0 7.1 87 0.9 N 13 17 7 9 1010.7 1010.7 0.0
31/02:00am 9.4 6.3 7.3 87 1.0 N 13 17 7 9 1011.3 1011.3 0.0
31/01:30am 9.2 6.0 6.8 85 1.1 N 13 15 7 8 1012.0 1012.0 0.0
31/01:00am 9.7 7.0 7.3 85 1.1 N 11 13 6 7 1012.6 1012.6 0.0
31/12:30am 10.0 7.2 7.1 82 1.4 N 11 13 6 7 1012.6 1012.6 0.0
31/12:00am 11.2 9.2 7.3 77 1.9 N 7 9 4 5 1012.8 1012.8 0.0
 
Date/Time
EDT
Temp
°C
App
Temp
°C
Dew
Point
Rel
Hum
%
Delta-T
°C
Wind Press
QNH
hPa
Press
MSL
hPa
Rain
since 9 am
mm
Dir
 
Spd
km/h
Gust
km/h
Spd
kts
Gust
kts
30/11:30pm 12.9 10.9 8.6 75 2.2 WNW 9 13 5 7 1013.0 1013.0 0.0
30/11:00pm 13.8 11.2 9.5 75 2.2 W 13 17 7 9 1013.4 1013.4 0.0
30/10:30pm 13.8 10.4 9.0 73 2.4 W 17 24 9 13 1013.8 1013.8 0.0
30/10:00pm 13.9 9.5 9.1 73 2.4 W 22 30 12 16 1014.0 1014.0 0.0
30/09:30pm 13.7 10.1 8.5 71 2.6 WNW 17 26 9 14 1013.6 1013.6 0.0
30/09:00pm 13.8 9.7 8.6 71 2.6 W 20 28 11 15 1013.6 1013.6 0.0
30/08:30pm 13.9 9.1 8.7 71 2.6 W 24 30 13 16 1013.5 1013.5 0.0
30/08:00pm 13.9 8.7 8.7 71 2.6 W 26 32 14 17 1013.2 1013.2 0.0
30/07:30pm 14.4 10.1 9.2 71 2.7 W 22 30 12 16 1013.2 1013.2 0.0
30/07:00pm 14.7 11.0 9.3 70 2.8 W 19 28 10 15 1013.1 1013.1 0.0
30/06:30pm 15.0 11.3 10.2 73 2.5 W 20 30 11 16 1013.1 1013.1 0.0
30/06:00pm 15.2 11.6 10.4 73 2.5 W 20 30 11 16 1013.2 1013.2 0.0
30/05:30pm 15.3 11.7 10.7 74 2.4 W 20 28 11 15 1013.4 1013.4 0.0
30/05:00pm 15.5 12.4 10.3 71 2.7 W 17 28 9 15 1013.6 1013.6 0.0
30/04:30pm 15.7 12.6 10.2 70 2.9 W 17 26 9 14 1013.8 1013.8 0.0
30/04:00pm 15.0 11.4 10.6 75 2.3 W 20 26 11 14 1014.0 1014.0 0.0
30/03:30pm 15.4 11.8 10.4 72 2.6 W 20 30 11 16 1014.1 1014.1 0.0
30/03:00pm 15.4 11.7 10.2 71 2.7 W 20 30 11 16 1014.3 1014.3 0.0
30/02:30pm 15.1 11.4 10.3 73 2.5 W 20 30 11 16 1014.5 1014.5 0.0
30/02:00pm 15.4 10.4 9.5 68 3.1 W 26 37 14 20 1014.8 1014.8 0.0
30/01:30pm 16.2 11.5 9.4 64 3.5 WNW 24 32 13 17 1014.7 1014.7 0.0
30/01:00pm 15.9 11.7 9.6 66 3.3 W 22 30 12 16 1014.8 1014.8 0.0
30/12:30pm 15.5 11.8 10.1 70 2.8 W 20 30 11 16 1015.0 1015.0 0.0
30/12:00pm 14.6 11.0 9.8 73 2.5 W 19 28 10 15 1015.1 1015.1 0.0
30/11:30am 15.0 11.2 9.8 71 2.7 W 20 35 11 19 1015.4 1015.4 0.0
30/11:00am 15.5 11.9 9.8 69 3.0 W 19 30 10 16 1015.4 1015.4 0.0
30/10:30am 14.2 9.9 9.4 73 2.5 W 22 33 12 18 1015.3 1015.3 0.0
30/10:00am 14.7 11.0 10.1 74 2.4 WNW 20 28 11 15 1015.5 1015.5 0.0
30/09:30am 14.5 12.4 11.1 80 1.8 WNW 13 19 7 10 1015.5 1015.5 0.0
30/09:00am 12.6 8.3 10.7 88 1.0 W 24 35 13 19 1015.7 1015.7 0.0
30/08:30am 13.8 10.2 10.4 80 1.8 WNW 20 30 11 16 1015.5 1015.5 0.0
30/08:00am 14.1 11.3 10.1 77 2.1 W 15 24 8 13 1015.0 1015.0 0.0
30/07:30am 13.8 10.5 9.6 76 2.2 W 17 22 9 12 1014.4 1014.4 0.0
30/07:00am 13.8 10.2 10.4 80 1.8 W 20 30 11 16 1014.3 1014.3 0.0
30/06:30am 13.7 8.4 9.7 77 2.1 W 28 37 15 20 1014.4 1014.4 0.0
30/06:00am 14.1 10.7 10.5 79 1.9 W 19 32 10 17 1014.2 1014.2 0.0
30/05:30am 13.9 9.9 8.9 72 2.5 W 20 28 11 15 1013.8 1013.8 0.0
30/05:00am 14.0 9.1 8.6 70 2.7 W 24 33 13 18 1014.0 1014.0 0.0
30/04:30am 13.7 8.9 7.5 66 3.0 W 22 37 12 20 1014.0 1014.0 0.0
30/04:00am 13.7 8.2 7.7 67 3.0 W 26 39 14 21 1014.2 1014.2 0.0
30/03:30am 14.0 8.8 8.8 71 2.6 W 26 35 14 19 1014.3 1014.3 0.0
30/03:00am 13.9 7.3 7.9 67 3.0 W 32 43 17 23 1014.5 1014.5 0.0
30/02:30am 13.8 8.9 8.4 70 2.7 W 24 41 13 22 1014.4 1014.4 0.0
30/02:00am 13.8 9.3 8.6 71 2.6 W 22 35 12 19 1014.6 1014.6 0.0
30/01:30am 13.5 9.0 8.4 71 2.6 W 22 35 12 19 1014.8 1014.8 0.0
30/01:00am 13.7 9.0 9.2 74 2.3 W 24 37 13 20 1015.2 1015.2 0.0
30/12:30am 13.5 10.3 9.9 79 1.9 W 17 22 9 12 1015.4 1015.4 0.0
30/12:00am 13.5 9.6 9.6 77 2.0 W 20 33 11 18 1015.8 1015.8 0.0
 
Date/Time
EDT
Temp
°C
App
Temp
°C
Dew
Point
Rel
Hum
%
Delta-T
°C
Wind Press
QNH
hPa
Press
MSL
hPa
Rain
since 9 am
mm
Dir
 
Spd
km/h
Gust
km/h
Spd
kts
Gust
kts
29/11:30pm 13.2 8.6 9.8 80 1.7 W 24 33 13 18 1016.0 1016.0 0.0
29/11:00pm 13.4 8.9 11.3 87 1.1 W 26 43 14 23 1016.3 1016.3 0.0
29/10:30pm 13.9 10.1 11.1 83 1.5 WNW 22 32 12 17 1016.5 1016.5 0.0
29/10:00pm 13.9 9.6 10.7 81 1.7 WNW 24 33 13 18 1016.4 1016.4 0.0
29/09:30pm 14.0 10.2 11.0 82 1.6 W 22 35 12 19 1016.3 1016.3 0.0
29/09:00pm 13.6 8.9 10.6 82 1.6 WNW 26 35 14 19 1016.3 1016.3 0.0
29/08:30pm 14.0 9.9 11.3 84 1.4 WNW 24 35 13 19 1016.2 1016.2 0.0
29/08:00pm 13.8 8.8 11.1 84 1.4 WNW 28 37 15 20 1016.3 1016.3 0.0
29/07:30pm 13.8 9.3 11.5 86 1.2 W 26 37 14 20 1016.2 1016.2 0.0
29/07:03pm 13.9 9.0 11.2 84 1.4 W 28 50 15 27 1016.0 1016.0 0.0
29/07:00pm 14.1 9.6 11.4 84 1.4 W 26 41 14 22 1016.0 1016.0 0.0
29/06:36pm 14.1 8.9 11.6 85 1.3 W 30 48 16 26 1015.8 1015.8 0.0
29/06:30pm 14.0 9.5 11.5 85 1.3 W 26 39 14 21 1015.9 1015.9 0.0
29/06:04pm 15.6 9.5 11.8 78 2.1 WNW 35 54 19 29 1016.0 1016.0 0.0
29/06:00pm 15.1 8.1 11.1 77 2.1 WNW 39 54 21 29 1016.0 1016.0 0.0
29/05:40pm 15.2 10.3 11.4 78 2.0 W 28 50 15 27 1015.7 1015.7 0.0
29/05:30pm 15.2 10.8 11.6 79 1.9 W 26 37 14 20 1015.6 1015.6 0.0

Other Formats:

Comma delimited format used in spreadsheet applications
http://www.bom.gov.au/fwo/IDV60801/IDV60801.94826.axf

JavaScript Object Notation format (JSON) in row-major order
http://www.bom.gov.au/fwo/IDV60801/IDV60801.94826.json